createdAt,value
2022-11-17T00:00:29.200Z,981.16
2022-11-17T00:01:29.190Z,981.13
2022-11-17T00:02:29.304Z,981.19
2022-11-17T00:03:29.150Z,981.15
2022-11-17T00:04:29.356Z,981.11
2022-11-17T00:05:29.135Z,981.13
2022-11-17T00:06:29.114Z,981.08
2022-11-17T00:07:29.153Z,981.11
2022-11-17T00:08:29.108Z,981.07
2022-11-17T00:09:29.092Z,981.04
2022-11-17T00:10:29.303Z,981.13
2022-11-17T00:11:29.062Z,981.10
2022-11-17T00:12:32.832Z,981.02
2022-11-17T00:13:29.047Z,981.02
2022-11-17T00:14:29.034Z,980.98
2022-11-17T00:15:29.022Z,981.05
2022-11-17T00:16:29.014Z,980.97
2022-11-17T00:17:29.004Z,980.99
2022-11-17T00:18:28.986Z,980.98
2022-11-17T00:19:29.054Z,980.88
2022-11-17T00:20:28.960Z,980.86
2022-11-17T00:21:28.958Z,980.89
2022-11-17T00:22:28.947Z,980.85
2022-11-17T00:23:28.918Z,980.78
2022-11-17T00:24:28.918Z,980.81
2022-11-17T00:25:28.909Z,980.76
2022-11-17T00:26:28.901Z,980.73
2022-11-17T00:27:29.197Z,980.73
2022-11-17T00:28:28.880Z,980.64
2022-11-17T00:29:28.871Z,980.67
2022-11-17T00:30:28.837Z,980.57
2022-11-17T00:31:28.842Z,980.59
2022-11-17T00:32:28.808Z,980.56
2022-11-17T00:33:29.088Z,980.52
2022-11-17T00:34:28.798Z,980.45
2022-11-17T00:35:28.792Z,980.41
2022-11-17T00:36:28.782Z,980.42
2022-11-17T00:37:29.065Z,980.36
2022-11-17T00:38:28.752Z,980.27
2022-11-17T00:39:29.089Z,980.30
2022-11-17T00:40:28.719Z,980.20
2022-11-17T00:41:28.710Z,980.11
2022-11-17T00:42:28.705Z,979.97
2022-11-17T00:43:28.681Z,980.03
2022-11-17T00:44:28.674Z,979.96
2022-11-17T00:45:28.932Z,979.93
2022-11-17T00:46:28.666Z,979.88
2022-11-17T00:47:28.947Z,979.82
2022-11-17T00:48:28.637Z,979.80
2022-11-17T00:49:28.625Z,979.71
2022-11-17T00:50:28.601Z,979.68
2022-11-17T00:51:28.614Z,979.63
2022-11-17T00:52:28.595Z,979.64
2022-11-17T00:53:28.895Z,979.66
2022-11-17T00:54:28.881Z,979.50
2022-11-17T00:55:28.620Z,979.57
2022-11-17T00:56:28.548Z,979.53
2022-11-17T00:57:28.524Z,979.37
2022-11-17T00:58:28.514Z,979.44
2022-11-17T00:59:28.517Z,979.39
2022-11-17T01:00:28.768Z,979.50
2022-11-17T01:01:28.525Z,979.39
2022-11-17T01:02:28.465Z,979.37
2022-11-17T01:03:28.456Z,979.37
2022-11-17T01:04:28.436Z,979.28
2022-11-17T01:05:32.859Z,979.24
2022-11-17T01:06:28.700Z,979.22
2022-11-17T01:07:28.502Z,979.24
2022-11-17T01:08:28.410Z,979.19
2022-11-17T01:09:28.638Z,979.15
2022-11-17T01:10:28.378Z,979.11
2022-11-17T01:11:28.378Z,979.15
2022-11-17T01:12:28.355Z,979.13
2022-11-17T01:13:28.346Z,979.18
2022-11-17T01:14:28.341Z,979.20
2022-11-17T01:15:28.538Z,979.21
2022-11-17T01:16:28.300Z,979.21
2022-11-17T01:17:28.498Z,979.19
2022-11-17T01:18:28.289Z,979.24
2022-11-17T01:19:28.279Z,979.16
2022-11-17T01:20:28.272Z,979.23
2022-11-17T01:21:28.263Z,979.16
2022-11-17T01:22:28.242Z,979.27
2022-11-17T01:23:28.491Z,979.16
2022-11-17T01:24:28.225Z,979.25
2022-11-17T01:25:28.214Z,979.23
2022-11-17T01:26:28.204Z,979.20
2022-11-17T01:27:28.206Z,979.25
2022-11-17T01:28:28.162Z,979.21
2022-11-17T01:29:28.487Z,979.23
2022-11-17T01:30:28.159Z,979.19
2022-11-17T01:31:28.159Z,979.21
2022-11-17T01:32:28.136Z,979.16
2022-11-17T01:33:28.117Z,979.16
2022-11-17T01:34:28.135Z,979.16
2022-11-17T01:35:28.117Z,979.09
2022-11-17T01:36:28.085Z,979.09
2022-11-17T01:37:28.064Z,978.99
2022-11-17T01:38:28.067Z,979.04
2022-11-17T01:39:28.042Z,979.00
2022-11-17T01:40:28.350Z,978.98
2022-11-17T01:41:28.033Z,978.95
2022-11-17T01:42:28.014Z,978.99
2022-11-17T01:43:28.005Z,978.92
2022-11-17T01:44:28.295Z,978.86
2022-11-17T01:45:27.976Z,978.90
2022-11-17T01:46:27.958Z,978.84
2022-11-17T01:47:27.948Z,978.85
2022-11-17T01:48:27.949Z,978.83
2022-11-17T01:49:27.959Z,978.79
2022-11-17T01:50:28.132Z,978.73
2022-11-17T01:51:27.928Z,978.70
2022-11-17T01:52:28.219Z,978.71
2022-11-17T01:53:27.899Z,978.72
2022-11-17T01:54:27.882Z,978.55
2022-11-17T01:55:27.869Z,978.58
2022-11-17T01:56:27.839Z,978.64
2022-11-17T01:57:27.851Z,978.53
2022-11-17T01:58:28.074Z,978.43
2022-11-17T01:59:27.828Z,978.39
2022-11-17T02:00:27.817Z,978.46
2022-11-17T02:01:27.840Z,978.38
2022-11-17T02:02:27.791Z,978.41
2022-11-17T02:03:28.081Z,978.35
2022-11-17T02:04:27.766Z,978.36
2022-11-17T02:05:27.740Z,978.31
2022-11-17T02:06:27.730Z,978.26
2022-11-17T02:07:27.833Z,978.34
2022-11-17T02:08:27.722Z,978.32
2022-11-17T02:09:28.001Z,978.32
2022-11-17T02:10:27.711Z,978.32
2022-11-17T02:11:27.692Z,978.23
2022-11-17T02:12:27.674Z,978.22
2022-11-17T02:13:27.656Z,978.09
2022-11-17T02:14:27.654Z,978.23
2022-11-17T02:15:27.665Z,978.15
2022-11-17T02:16:27.625Z,978.14
2022-11-17T02:17:27.841Z,978.11
2022-11-17T02:18:27.582Z,978.02
2022-11-17T02:19:27.582Z,978.11
2022-11-17T02:20:27.562Z,978.04
2022-11-17T02:21:27.553Z,978.00
2022-11-17T02:22:27.851Z,977.99
2022-11-17T02:23:27.524Z,977.96
2022-11-17T02:24:27.527Z,977.97
2022-11-17T02:25:27.544Z,977.97
2022-11-17T02:26:27.506Z,977.96
2022-11-17T02:27:27.796Z,977.90
2022-11-17T02:28:27.463Z,977.95
2022-11-17T02:29:27.467Z,977.96
2022-11-17T02:30:27.448Z,977.93
2022-11-17T02:31:27.448Z,977.87
2022-11-17T02:32:27.426Z,977.92
2022-11-17T02:33:27.604Z,977.81
2022-11-17T02:34:27.394Z,977.75
2022-11-17T02:35:27.407Z,977.70
2022-11-17T02:36:27.390Z,977.66
2022-11-17T02:37:27.377Z,977.68
2022-11-17T02:38:27.569Z,977.69
2022-11-17T02:39:27.335Z,977.72
2022-11-17T02:40:27.326Z,977.80
2022-11-17T02:41:27.330Z,977.70
2022-11-17T02:42:27.304Z,977.65
2022-11-17T02:43:27.311Z,977.65
2022-11-17T02:44:27.295Z,977.56
2022-11-17T02:45:27.278Z,977.54
2022-11-17T02:46:27.272Z,977.53
2022-11-17T02:47:27.267Z,977.61
2022-11-17T02:48:27.231Z,977.57
2022-11-17T02:49:27.228Z,977.48
2022-11-17T02:50:28.560Z,977.44
2022-11-17T02:51:27.212Z,977.45
2022-11-17T02:52:27.190Z,977.46
2022-11-17T02:53:27.504Z,977.41
2022-11-17T02:54:27.190Z,977.44
2022-11-17T02:55:27.192Z,977.47
2022-11-17T02:56:27.172Z,977.50
2022-11-17T02:57:27.142Z,977.59
2022-11-17T02:58:27.117Z,977.44
2022-11-17T02:59:27.373Z,977.50
2022-11-17T03:00:27.089Z,977.53
2022-11-17T03:01:27.188Z,977.44
2022-11-17T03:02:27.074Z,977.47
2022-11-17T03:03:27.355Z,977.35
2022-11-17T03:04:27.043Z,977.34
2022-11-17T03:05:27.052Z,977.28
2022-11-17T03:06:27.020Z,977.38
2022-11-17T03:07:27.114Z,977.29
2022-11-17T03:08:31.675Z,977.29
2022-11-17T03:09:28.006Z,977.23
2022-11-17T03:10:27.284Z,977.37
2022-11-17T03:11:26.961Z,977.29
2022-11-17T03:13:38.196Z,977.15
2022-11-17T03:14:38.175Z,977.25
2022-11-17T03:15:37.930Z,977.22
2022-11-17T03:16:37.911Z,977.17
2022-11-17T03:17:37.903Z,977.17
2022-11-17T03:18:38.143Z,977.22
2022-11-17T03:19:37.891Z,977.13
2022-11-17T03:20:37.861Z,977.05
2022-11-17T03:21:37.851Z,977.13
2022-11-17T03:22:38.135Z,977.04
2022-11-17T03:23:38.117Z,977.14
2022-11-17T03:24:37.832Z,977.09
2022-11-17T03:25:37.814Z,976.97
2022-11-17T03:26:37.782Z,977.12
2022-11-17T03:27:37.780Z,977.05
2022-11-17T03:28:38.093Z,977.07
2022-11-17T03:29:37.983Z,977.08
2022-11-17T03:30:38.019Z,977.12
2022-11-17T03:31:37.722Z,977.00
2022-11-17T03:32:37.713Z,977.14
2022-11-17T03:33:37.974Z,977.12
2022-11-17T03:34:37.692Z,977.04
2022-11-17T03:35:37.683Z,977.06
2022-11-17T03:36:37.981Z,977.03
2022-11-17T03:37:37.664Z,977.03
2022-11-17T03:38:37.666Z,976.99
2022-11-17T03:39:37.650Z,976.90
2022-11-17T03:40:37.634Z,976.93
2022-11-17T03:41:37.604Z,976.95
2022-11-17T03:42:37.914Z,976.83
2022-11-17T03:43:37.870Z,976.83
2022-11-17T03:44:37.578Z,976.85
2022-11-17T03:45:37.574Z,976.84
2022-11-17T03:46:37.569Z,976.76
2022-11-17T03:47:37.546Z,976.87
2022-11-17T03:48:37.821Z,976.79
2022-11-17T03:49:37.552Z,976.77
2022-11-17T03:50:37.523Z,976.75
2022-11-17T03:51:37.497Z,976.76
2022-11-17T03:52:37.497Z,976.85
2022-11-17T03:53:37.871Z,976.71
2022-11-17T03:54:37.477Z,976.86
2022-11-17T03:55:37.449Z,976.78
2022-11-17T03:56:37.451Z,976.73
2022-11-17T03:57:37.434Z,976.74
2022-11-17T03:58:37.729Z,976.78
2022-11-17T03:59:37.408Z,976.77
2022-11-17T04:00:37.388Z,976.77
2022-11-17T04:01:37.428Z,976.84
2022-11-17T04:02:37.367Z,976.85
2022-11-17T04:03:37.724Z,976.86
2022-11-17T04:04:37.634Z,976.77
2022-11-17T04:05:37.339Z,976.79
2022-11-17T04:06:37.323Z,976.82
2022-11-17T04:07:37.400Z,976.71
2022-11-17T04:08:37.313Z,976.76
2022-11-17T04:09:37.303Z,976.68
2022-11-17T04:10:37.570Z,976.67
2022-11-17T04:11:37.263Z,976.68
2022-11-17T04:12:37.249Z,976.71
2022-11-17T04:13:37.687Z,976.69
2022-11-17T04:14:37.231Z,976.70
2022-11-17T04:15:37.211Z,976.64
2022-11-17T04:16:37.214Z,976.60
2022-11-17T04:17:37.507Z,976.60
2022-11-17T04:18:37.500Z,976.64
2022-11-17T04:19:37.185Z,976.66
2022-11-17T04:20:37.157Z,976.61
2022-11-17T04:21:37.165Z,976.59
2022-11-17T04:22:37.443Z,976.51
2022-11-17T04:23:37.671Z,976.46
2022-11-17T04:24:37.112Z,976.46
2022-11-17T04:25:37.104Z,976.45
2022-11-17T04:26:37.106Z,976.39
2022-11-17T04:27:37.097Z,976.44
2022-11-17T04:28:37.341Z,976.30
2022-11-17T04:29:37.062Z,976.38
2022-11-17T04:30:37.034Z,976.31
2022-11-17T04:31:37.025Z,976.31
2022-11-17T04:32:37.029Z,976.34
2022-11-17T04:33:37.493Z,976.27
2022-11-17T04:34:37.009Z,976.23
2022-11-17T04:35:37.009Z,976.33
2022-11-17T04:36:36.982Z,976.31
2022-11-17T04:37:36.978Z,976.31
2022-11-17T04:38:36.960Z,976.20
2022-11-17T04:39:37.260Z,976.27
2022-11-17T04:40:36.956Z,976.21
2022-11-17T04:41:36.936Z,976.27
2022-11-17T04:42:36.899Z,976.19
2022-11-17T04:43:37.176Z,976.23
2022-11-17T04:44:36.891Z,976.25
2022-11-17T04:45:37.211Z,976.23
2022-11-17T04:46:36.863Z,976.20
2022-11-17T04:47:36.839Z,976.15
2022-11-17T04:48:36.848Z,976.19
2022-11-17T04:49:36.831Z,976.19
2022-11-17T04:50:37.122Z,976.20
2022-11-17T04:51:36.798Z,976.21
2022-11-17T04:52:36.800Z,976.12
2022-11-17T04:53:37.063Z,976.20
2022-11-17T04:54:36.770Z,976.19
2022-11-17T04:55:36.766Z,976.11
2022-11-17T04:56:37.063Z,976.12
2022-11-17T04:57:36.721Z,976.16
2022-11-17T04:58:36.711Z,976.10
2022-11-17T04:59:36.715Z,976.12
2022-11-17T05:00:36.691Z,976.17
2022-11-17T05:01:36.685Z,976.15
2022-11-17T05:02:37.028Z,976.18
2022-11-17T05:03:36.935Z,976.11
2022-11-17T05:04:36.641Z,976.12
2022-11-17T05:05:36.633Z,976.15
2022-11-17T05:06:36.613Z,976.10
2022-11-17T05:07:36.912Z,976.13
2022-11-17T05:08:36.593Z,976.14
2022-11-17T05:09:36.602Z,976.04
2022-11-17T05:10:36.629Z,976.01
2022-11-17T05:11:36.818Z,976.00
2022-11-17T05:12:36.546Z,976.05
2022-11-17T05:13:37.004Z,976.07
2022-11-17T05:14:36.539Z,976.03
2022-11-17T05:15:36.539Z,975.98
2022-11-17T05:16:36.503Z,975.98
2022-11-17T05:17:36.829Z,975.95
2022-11-17T05:18:36.476Z,975.99
2022-11-17T05:19:36.491Z,975.99
2022-11-17T05:20:36.470Z,975.95
2022-11-17T05:21:36.449Z,975.91
2022-11-17T05:22:36.744Z,975.89
2022-11-17T05:23:36.918Z,975.89
2022-11-17T05:24:36.409Z,975.82
2022-11-17T05:25:36.421Z,975.83
2022-11-17T05:26:36.401Z,975.83
2022-11-17T05:27:36.392Z,975.84
2022-11-17T05:28:36.672Z,975.83
2022-11-17T05:29:36.371Z,975.86
2022-11-17T05:30:36.340Z,975.80
2022-11-17T05:31:36.342Z,975.85
2022-11-17T05:32:36.313Z,975.77
2022-11-17T05:33:37.954Z,975.82
2022-11-17T05:34:36.510Z,975.80
2022-11-17T05:35:36.304Z,975.83
2022-11-17T05:36:36.279Z,975.73
2022-11-17T05:37:36.273Z,975.82
2022-11-17T05:38:36.259Z,975.87
2022-11-17T05:39:36.523Z,975.80
2022-11-17T05:40:36.227Z,975.81
2022-11-17T05:41:36.224Z,975.81
2022-11-17T05:42:36.228Z,975.79
2022-11-17T05:43:36.541Z,975.82
2022-11-17T05:44:36.195Z,975.78
2022-11-17T05:45:36.385Z,975.73
2022-11-17T05:46:36.192Z,975.71
2022-11-17T05:47:36.153Z,975.73
2022-11-17T05:48:36.133Z,975.80
2022-11-17T05:49:36.137Z,975.69
2022-11-17T05:50:36.423Z,975.62
2022-11-17T05:51:36.116Z,975.70
2022-11-17T05:52:36.084Z,975.73
2022-11-17T05:53:36.372Z,975.71
2022-11-17T05:54:36.057Z,975.77
2022-11-17T05:55:36.329Z,975.77
2022-11-17T05:56:36.035Z,975.81
2022-11-17T05:57:36.028Z,975.83
2022-11-17T05:58:36.018Z,975.81
2022-11-17T05:59:36.018Z,975.90
2022-11-17T06:00:36.010Z,975.87
2022-11-17T06:01:36.295Z,975.85
2022-11-17T06:02:35.987Z,975.87
2022-11-17T06:03:36.204Z,975.86
2022-11-17T06:04:36.018Z,975.91
2022-11-17T06:05:35.950Z,975.88
2022-11-17T06:06:36.240Z,975.93
2022-11-17T06:07:35.954Z,975.84
2022-11-17T06:08:35.911Z,975.89
2022-11-17T06:09:35.900Z,975.80
2022-11-17T06:10:35.888Z,975.78
2022-11-17T06:11:35.883Z,975.81
2022-11-17T06:12:36.172Z,975.77
2022-11-17T06:13:36.177Z,975.79
2022-11-17T06:14:35.843Z,975.78
2022-11-17T06:15:35.831Z,975.79
2022-11-17T06:16:36.010Z,975.82
2022-11-17T06:17:35.799Z,975.75
2022-11-17T06:18:35.792Z,975.81
2022-11-17T06:19:35.772Z,975.83
2022-11-17T06:20:35.760Z,975.68
2022-11-17T06:22:04.375Z,975.67
2022-11-17T06:22:36.733Z,975.67
2022-11-17T06:23:36.032Z,975.73
2022-11-17T06:24:35.711Z,975.78
2022-11-17T06:25:35.726Z,975.77
2022-11-17T06:26:35.692Z,975.75
2022-11-17T06:27:36.007Z,975.77
2022-11-17T06:28:35.676Z,975.68
2022-11-17T06:29:38.249Z,975.78
2022-11-17T06:30:35.642Z,975.71
2022-11-17T06:31:35.669Z,975.67
2022-11-17T06:32:35.615Z,975.77
2022-11-17T06:33:36.233Z,975.76
2022-11-17T06:34:35.603Z,975.74
2022-11-17T06:35:35.608Z,975.75
2022-11-17T06:36:35.575Z,975.70
2022-11-17T06:37:35.566Z,975.71
2022-11-17T06:38:35.545Z,975.72
2022-11-17T06:39:35.820Z,975.70
2022-11-17T06:40:35.538Z,975.78
2022-11-17T06:41:35.528Z,975.78
2022-11-17T06:42:35.525Z,975.88
2022-11-17T06:43:35.988Z,975.95
2022-11-17T06:44:38.458Z,975.84
2022-11-17T06:45:35.680Z,975.93
2022-11-17T06:46:35.736Z,975.93
2022-11-17T06:47:35.466Z,975.97
2022-11-17T06:48:35.803Z,975.97
2022-11-17T06:49:35.426Z,976.01
2022-11-17T06:50:35.419Z,976.02
2022-11-17T06:51:35.399Z,976.04
2022-11-17T06:52:35.608Z,976.01
2022-11-17T06:53:35.732Z,976.10
2022-11-17T06:54:35.393Z,976.09
2022-11-17T06:55:35.395Z,976.11
2022-11-17T06:56:35.375Z,976.12
2022-11-17T06:57:35.377Z,976.11
2022-11-17T06:58:35.757Z,976.20
2022-11-17T06:59:35.581Z,976.18
2022-11-17T07:00:35.616Z,976.18
2022-11-17T07:01:35.329Z,976.21
2022-11-17T07:02:35.318Z,976.23
2022-11-17T07:03:35.691Z,976.17
2022-11-17T07:04:35.277Z,976.14
2022-11-17T07:05:35.278Z,976.07
2022-11-17T07:06:35.250Z,976.12
2022-11-17T07:07:35.619Z,976.14
2022-11-17T07:08:35.588Z,976.12
2022-11-17T07:09:35.232Z,976.11
2022-11-17T07:10:35.411Z,976.21
2022-11-17T07:11:35.212Z,976.16
2022-11-17T07:12:35.189Z,976.17
2022-11-17T07:13:35.191Z,976.13
2022-11-17T07:14:35.168Z,976.16
2022-11-17T07:15:35.171Z,976.11
2022-11-17T07:16:35.467Z,976.09
2022-11-17T07:17:35.143Z,976.08
2022-11-17T07:18:35.329Z,976.08
2022-11-17T07:19:35.140Z,976.05
2022-11-17T07:20:35.092Z,976.07
2022-11-17T07:21:35.092Z,976.06
2022-11-17T07:22:35.071Z,976.05
2022-11-17T07:23:35.072Z,976.09
2022-11-17T07:24:35.044Z,976.05
2022-11-17T07:25:35.382Z,976.00
2022-11-17T07:26:35.023Z,976.05
2022-11-17T07:27:35.024Z,976.03
2022-11-17T07:28:35.335Z,976.04
2022-11-17T07:29:35.205Z,976.02
2022-11-17T07:30:34.983Z,976.04
2022-11-17T07:31:34.986Z,976.02
2022-11-17T07:32:34.954Z,976.04
2022-11-17T07:33:34.985Z,976.03
2022-11-17T07:34:35.213Z,976.00
2022-11-17T07:35:34.947Z,976.03
2022-11-17T07:36:34.905Z,975.99
2022-11-17T07:37:34.905Z,976.00
2022-11-17T07:38:35.271Z,976.09
2022-11-17T07:39:35.196Z,976.03
2022-11-17T07:40:34.896Z,976.08
2022-11-17T07:41:34.857Z,976.10
2022-11-17T07:42:34.853Z,976.12
2022-11-17T07:43:34.831Z,976.05
2022-11-17T07:44:34.836Z,976.15
2022-11-17T07:45:34.817Z,976.11
2022-11-17T07:46:35.048Z,976.09
2022-11-17T07:47:34.784Z,976.10
2022-11-17T07:48:35.170Z,976.10
2022-11-17T07:49:34.758Z,976.09
2022-11-17T07:50:34.759Z,976.11
2022-11-17T07:51:35.050Z,976.15
2022-11-17T07:52:38.764Z,976.09
2022-11-17T07:53:35.719Z,976.09
2022-11-17T07:54:34.721Z,976.08
2022-11-17T07:55:34.698Z,976.17
2022-11-17T07:56:34.693Z,976.16
2022-11-17T07:57:34.691Z,976.18
2022-11-17T07:58:34.969Z,976.19
2022-11-17T07:59:34.649Z,976.27
2022-11-17T08:00:34.685Z,976.24
2022-11-17T08:01:34.930Z,976.21
2022-11-17T08:02:34.632Z,976.25
2022-11-17T08:03:34.637Z,976.26
2022-11-17T08:04:34.600Z,976.31
2022-11-17T08:05:39.940Z,976.27
2022-11-17T08:06:35.853Z,976.29
2022-11-17T08:07:34.609Z,976.35
2022-11-17T08:08:34.988Z,976.35
2022-11-17T08:09:34.541Z,976.45
2022-11-17T08:10:34.723Z,976.43
2022-11-17T08:11:34.502Z,976.43
2022-11-17T08:12:34.502Z,976.43
2022-11-17T08:13:34.513Z,976.42
2022-11-17T08:14:34.485Z,976.42
2022-11-17T08:15:35.154Z,976.40
2022-11-17T08:16:34.477Z,976.46
2022-11-17T08:17:34.437Z,976.49
2022-11-17T08:18:34.970Z,976.42
2022-11-17T08:19:34.418Z,976.45
2022-11-17T08:20:34.405Z,976.52
2022-11-17T08:21:34.386Z,976.54
2022-11-17T08:22:34.385Z,976.42
2022-11-17T08:23:34.364Z,976.46
2022-11-17T08:24:34.385Z,976.47
2022-11-17T08:25:34.356Z,976.56
2022-11-17T08:26:34.342Z,976.53
2022-11-17T08:27:34.316Z,976.57
2022-11-17T08:28:34.774Z,976.64
2022-11-17T08:29:34.297Z,976.60
2022-11-17T08:30:34.495Z,976.59
2022-11-17T08:31:34.267Z,976.55
2022-11-17T08:32:34.279Z,976.63
2022-11-17T08:33:34.252Z,976.63
2022-11-17T08:34:34.259Z,976.65
2022-11-17T08:35:37.397Z,976.68
2022-11-17T08:36:34.231Z,976.67
2022-11-17T08:37:34.199Z,976.69
2022-11-17T08:38:34.577Z,976.73
2022-11-17T08:39:34.180Z,976.73
2022-11-17T08:40:34.389Z,976.78
2022-11-17T08:41:34.158Z,976.78
2022-11-17T08:42:34.159Z,976.79
2022-11-17T08:43:34.130Z,976.77
2022-11-17T08:44:34.132Z,976.80
2022-11-17T08:45:34.331Z,976.89
2022-11-17T08:46:34.120Z,976.86
2022-11-17T08:47:34.109Z,976.96
2022-11-17T08:48:34.464Z,976.95
2022-11-17T08:49:34.118Z,977.00
2022-11-17T08:50:34.062Z,977.03
2022-11-17T08:51:34.380Z,977.10
2022-11-17T08:52:34.062Z,977.07
2022-11-17T08:53:34.021Z,977.10
2022-11-17T08:54:34.019Z,977.17
2022-11-17T08:55:38.205Z,977.18
2022-11-17T08:56:35.301Z,977.18
2022-11-17T08:57:34.031Z,977.15
2022-11-17T08:58:34.349Z,977.12
2022-11-17T08:59:33.963Z,977.21
2022-11-17T09:00:33.929Z,977.13
2022-11-17T09:01:33.989Z,977.20
2022-11-17T09:02:34.238Z,977.16
2022-11-17T09:03:33.900Z,977.16
2022-11-17T09:04:40.910Z,977.24
2022-11-17T09:05:33.905Z,977.24
2022-11-17T09:06:33.860Z,977.26
2022-11-17T09:07:35.069Z,977.26
2022-11-17T09:08:49.366Z,977.27
2022-11-17T09:09:34.883Z,977.30
2022-11-17T09:10:33.830Z,977.23
2022-11-17T09:11:34.105Z,977.29
2022-11-17T09:12:33.808Z,977.23
2022-11-17T09:13:33.792Z,977.30
2022-11-17T09:14:33.764Z,977.27
2022-11-17T09:15:33.755Z,977.34
2022-11-17T09:16:33.760Z,977.34
2022-11-17T09:17:34.035Z,977.33
2022-11-17T09:18:34.018Z,977.33
2022-11-17T09:19:33.694Z,977.34
2022-11-17T09:20:33.694Z,977.33
2022-11-17T09:21:33.665Z,977.38
2022-11-17T09:22:33.674Z,977.42
2022-11-17T09:23:33.883Z,977.40
2022-11-17T09:24:33.645Z,977.49
2022-11-17T09:25:33.649Z,977.49
2022-11-17T09:26:33.663Z,977.53
2022-11-17T09:27:33.620Z,977.53
2022-11-17T09:28:33.840Z,977.53
2022-11-17T09:29:33.587Z,977.47
2022-11-17T09:30:33.617Z,977.55
2022-11-17T09:31:33.935Z,977.54
2022-11-17T09:32:33.556Z,977.58
2022-11-17T09:33:33.552Z,977.53
2022-11-17T09:34:33.584Z,977.56
2022-11-17T09:35:33.517Z,977.59
2022-11-17T09:36:33.813Z,977.62
2022-11-17T09:37:33.502Z,977.55
2022-11-17T09:38:33.928Z,977.59
2022-11-17T09:39:33.483Z,977.63
2022-11-17T09:40:37.814Z,977.57
2022-11-17T09:41:33.458Z,977.67
2022-11-17T09:42:33.640Z,977.58
2022-11-17T09:43:33.434Z,977.63
2022-11-17T09:44:33.412Z,977.69
2022-11-17T09:45:33.411Z,977.60
2022-11-17T09:46:33.414Z,977.69
2022-11-17T09:47:33.595Z,977.59
2022-11-17T09:48:41.172Z,977.62
2022-11-17T09:49:34.365Z,977.61
2022-11-17T09:50:33.352Z,977.63
2022-11-17T09:51:33.336Z,977.62
2022-11-17T09:52:33.532Z,977.63
2022-11-17T09:53:33.699Z,977.62
2022-11-17T09:54:33.292Z,977.58
2022-11-17T09:55:34.537Z,977.58
2022-11-17T09:56:33.277Z,977.50
2022-11-17T09:57:33.453Z,977.53
2022-11-17T09:58:33.729Z,977.51
2022-11-17T09:59:33.224Z,977.62
2022-11-17T10:00:33.248Z,977.59
2022-11-17T10:01:33.204Z,977.62
2022-11-17T10:02:33.605Z,977.64
2022-11-17T10:03:33.339Z,977.67
2022-11-17T10:04:33.199Z,977.66
2022-11-17T10:05:33.177Z,977.64
2022-11-17T10:06:33.173Z,977.66
2022-11-17T10:07:33.417Z,977.67
2022-11-17T10:08:33.419Z,977.63
2022-11-17T10:09:33.106Z,977.70
2022-11-17T10:10:33.121Z,977.68
2022-11-17T10:11:33.100Z,977.72
2022-11-17T10:12:33.103Z,977.71
2022-11-17T10:13:33.711Z,977.70
2022-11-17T10:14:33.081Z,977.78
2022-11-17T10:15:33.062Z,977.72
2022-11-17T10:16:33.042Z,977.67
2022-11-17T10:17:33.033Z,977.71
2022-11-17T10:18:37.684Z,977.76
2022-11-17T10:19:34.265Z,977.78
2022-11-17T10:20:32.991Z,977.77
2022-11-17T10:21:32.987Z,977.76
2022-11-17T10:22:32.960Z,977.86
2022-11-17T10:23:33.137Z,977.84
2022-11-17T10:24:33.214Z,977.91
2022-11-17T10:25:32.945Z,977.87
2022-11-17T10:26:32.924Z,977.85
2022-11-17T10:27:32.920Z,977.90
2022-11-17T10:28:32.957Z,977.93
2022-11-17T10:29:32.885Z,977.93
2022-11-17T10:30:33.147Z,977.95
2022-11-17T10:31:32.864Z,977.90
2022-11-17T10:32:32.868Z,977.88
2022-11-17T10:33:33.155Z,977.90
2022-11-17T10:34:38.847Z,977.90
2022-11-17T10:35:33.881Z,977.92
2022-11-17T10:36:32.791Z,977.88
2022-11-17T10:37:32.805Z,977.95
2022-11-17T10:38:32.811Z,977.91
2022-11-17T10:39:32.779Z,977.90
2022-11-17T10:40:32.779Z,977.90
2022-11-17T10:41:33.102Z,977.90
2022-11-17T10:42:32.730Z,977.93
2022-11-17T10:43:32.825Z,977.88
2022-11-17T10:44:32.696Z,977.91
2022-11-17T10:45:32.724Z,977.98
2022-11-17T10:46:43.092Z,977.93
2022-11-17T10:47:33.991Z,977.89
2022-11-17T10:48:32.928Z,977.96
2022-11-17T10:49:32.656Z,978.02
2022-11-17T10:50:32.641Z,978.02
2022-11-17T10:51:32.642Z,978.03
2022-11-17T10:52:32.597Z,978.05
2022-11-17T10:53:32.753Z,978.07
2022-11-17T10:54:32.610Z,978.01
2022-11-17T10:55:32.579Z,978.01
2022-11-17T10:56:32.563Z,978.13
2022-11-17T10:57:32.566Z,978.09
2022-11-17T10:58:32.628Z,978.09
2022-11-17T10:59:32.544Z,978.12
2022-11-17T11:00:32.835Z,978.11
2022-11-17T11:01:32.578Z,978.14
2022-11-17T11:02:32.483Z,978.16
2022-11-17T11:03:33.075Z,978.12
2022-11-17T11:04:32.773Z,978.17
2022-11-17T11:05:32.498Z,978.17
2022-11-17T11:06:32.474Z,978.14
2022-11-17T11:07:32.449Z,978.11
2022-11-17T11:08:32.411Z,978.17
2022-11-17T11:09:32.414Z,978.19
2022-11-17T11:10:32.727Z,978.21
2022-11-17T11:11:36.269Z,978.20
2022-11-17T11:12:32.377Z,978.15
2022-11-17T11:13:32.353Z,978.18
2022-11-17T11:14:32.355Z,978.17
2022-11-17T11:15:32.544Z,978.17
2022-11-17T11:16:32.478Z,978.13
2022-11-17T11:17:32.329Z,978.17
2022-11-17T11:18:32.285Z,978.16
2022-11-17T11:19:32.620Z,978.17
2022-11-17T11:20:32.278Z,978.11
2022-11-17T11:21:32.516Z,978.22
2022-11-17T11:22:32.281Z,978.19
2022-11-17T11:23:32.259Z,978.16
2022-11-17T11:24:32.216Z,978.18
2022-11-17T11:25:32.450Z,978.16
2022-11-17T11:26:32.199Z,978.16
2022-11-17T11:27:32.195Z,978.19
2022-11-17T11:28:32.167Z,978.13
2022-11-17T11:29:32.473Z,978.21
2022-11-17T11:30:32.147Z,978.24
2022-11-17T11:31:32.146Z,978.20
2022-11-17T11:32:32.118Z,978.20
2022-11-17T11:33:32.135Z,978.26
2022-11-17T11:34:32.114Z,978.19
2022-11-17T11:35:32.473Z,978.22
2022-11-17T11:36:32.387Z,978.21
2022-11-17T11:37:32.078Z,978.22
2022-11-17T11:38:32.065Z,978.26
2022-11-17T11:39:32.367Z,978.24
2022-11-17T11:40:32.045Z,978.34
2022-11-17T11:41:32.320Z,978.34
2022-11-17T11:42:31.998Z,978.31
2022-11-17T11:43:32.003Z,978.41
2022-11-17T11:44:31.972Z,978.32
2022-11-17T11:45:32.012Z,978.35
2022-11-17T11:46:32.212Z,978.35
2022-11-17T11:47:31.975Z,978.34
2022-11-17T11:48:31.931Z,978.36
2022-11-17T11:49:32.132Z,978.30
2022-11-17T11:50:31.927Z,978.40
2022-11-17T11:51:31.928Z,978.32
2022-11-17T11:52:31.894Z,978.37
2022-11-17T11:53:31.883Z,978.35
2022-11-17T11:54:31.884Z,978.33
2022-11-17T11:55:31.894Z,978.39
2022-11-17T11:56:31.845Z,978.39
2022-11-17T11:57:31.861Z,978.40
2022-11-17T11:58:31.831Z,978.39
2022-11-17T11:59:31.840Z,978.40
2022-11-17T12:00:31.810Z,978.44
2022-11-17T12:01:31.808Z,978.49
2022-11-17T12:02:31.886Z,978.45
2022-11-17T12:03:31.852Z,978.46
2022-11-17T12:04:31.779Z,978.47
2022-11-17T12:05:31.772Z,978.47
2022-11-17T12:06:31.718Z,978.48
2022-11-17T12:07:31.776Z,978.50
2022-11-17T12:08:31.714Z,978.49
2022-11-17T12:09:31.715Z,978.52
2022-11-17T12:10:31.878Z,978.49
2022-11-17T12:11:31.678Z,978.50
2022-11-17T12:12:31.648Z,978.54
2022-11-17T12:13:31.650Z,978.50
2022-11-17T12:14:31.642Z,978.58
2022-11-17T12:15:31.618Z,978.59
2022-11-17T12:16:31.633Z,978.56
2022-11-17T12:17:31.623Z,978.51
2022-11-17T12:18:31.584Z,978.52
2022-11-17T12:19:31.569Z,978.50
2022-11-17T12:20:31.574Z,978.54
2022-11-17T12:21:31.550Z,978.44
2022-11-17T12:22:31.548Z,978.55
2022-11-17T12:23:31.741Z,978.53
2022-11-17T12:24:31.516Z,978.52
2022-11-17T12:25:31.501Z,978.52
2022-11-17T12:26:31.494Z,978.51
2022-11-17T12:27:31.482Z,978.47
2022-11-17T12:28:31.679Z,978.55
2022-11-17T12:29:32.339Z,978.54